createdAt,value
2019-02-15T00:02:24.871Z,17.83
2019-02-15T00:05:27.987Z,18.33
2019-02-15T00:08:31.179Z,17.33
2019-02-15T00:11:34.283Z,18.13
2019-02-15T00:14:46.623Z,18.20
2019-02-15T00:18:24.966Z,17.07
2019-02-15T00:21:30.907Z,18.27
2019-02-15T00:24:34.072Z,17.60
2019-02-15T00:27:37.243Z,17.00
2019-02-15T00:30:40.439Z,17.80
2019-02-15T00:33:43.659Z,16.63
2019-02-15T00:36:46.829Z,18.17
2019-02-15T00:39:50.024Z,17.43
2019-02-15T00:42:53.353Z,17.40
2019-02-15T00:46:03.572Z,16.33
2019-02-15T00:49:07.780Z,17.37
2019-02-15T00:54:17.215Z,17.77
2019-02-15T00:58:31.581Z,16.37
2019-02-15T01:01:39.761Z,17.23
2019-02-15T01:04:51.971Z,17.50
2019-02-15T01:07:59.872Z,17.33
2019-02-15T01:11:12.132Z,18.57
2019-02-15T01:14:15.331Z,18.00
2019-02-15T01:17:18.541Z,17.37
2019-02-15T01:20:21.717Z,17.57
2019-02-15T01:23:24.915Z,17.43
2019-02-15T01:26:35.115Z,17.90
2019-02-15T01:29:43.244Z,17.03
2019-02-15T01:32:52.379Z,17.50
2019-02-15T01:36:02.668Z,17.77
2019-02-15T01:39:13.165Z,17.37
2019-02-15T01:42:23.300Z,17.33
2019-02-15T01:45:32.850Z,17.90
2019-02-15T01:48:36.027Z,17.73
2019-02-15T01:51:39.118Z,17.17
2019-02-15T01:54:42.206Z,17.13
2019-02-15T01:57:45.302Z,17.73
2019-02-15T02:00:48.398Z,17.03
2019-02-15T02:03:51.594Z,17.93
2019-02-15T02:06:54.795Z,17.40
2019-02-15T02:09:57.987Z,17.37
2019-02-15T02:13:01.179Z,17.90
2019-02-15T02:16:04.372Z,18.37
2019-02-15T02:19:07.557Z,17.67
2019-02-15T02:22:10.640Z,17.73
2019-02-15T02:25:13.726Z,18.07
2019-02-15T02:28:16.835Z,18.07
2019-02-15T02:31:20.025Z,18.70
2019-02-15T02:34:23.120Z,18.70
2019-02-15T02:37:26.315Z,17.83
2019-02-15T02:40:29.418Z,17.03
2019-02-15T02:43:32.600Z,18.47
2019-02-15T02:46:35.692Z,18.67
2019-02-15T02:49:38.801Z,18.00
2019-02-15T02:52:41.867Z,18.30
2019-02-15T02:55:44.970Z,18.00
2019-02-15T02:58:48.059Z,19.10
2019-02-15T03:01:51.144Z,17.13
2019-02-15T03:04:54.244Z,16.93
2019-02-15T03:07:57.477Z,18.13
2019-02-15T03:11:00.634Z,18.33
2019-02-15T03:14:11.373Z,18.90
2019-02-15T03:17:06.924Z,17.77
2019-02-15T03:20:10.567Z,18.53
2019-02-15T03:23:13.715Z,16.87
2019-02-15T03:26:16.808Z,16.63
2019-02-15T03:29:19.912Z,17.93
2019-02-15T03:32:23.095Z,17.83
2019-02-15T03:35:26.287Z,17.83
2019-02-15T03:38:40.421Z,18.73
2019-02-15T03:41:43.528Z,17.53
2019-02-15T03:44:46.616Z,19.07
2019-02-15T03:47:49.713Z,18.23
2019-02-15T03:50:52.970Z,17.23
2019-02-15T03:53:56.099Z,17.03
2019-02-15T03:56:59.191Z,17.57
2019-02-15T04:00:02.469Z,17.43
2019-02-15T04:03:05.599Z,18.10
2019-02-15T04:06:08.779Z,18.13
2019-02-15T04:09:11.964Z,16.87
2019-02-15T04:12:15.064Z,18.63
2019-02-15T04:15:18.148Z,17.47
2019-02-15T04:18:21.223Z,18.37
2019-02-15T04:21:24.333Z,17.97
2019-02-15T04:24:27.400Z,18.80
2019-02-15T04:27:30.488Z,18.83
2019-02-15T04:30:33.604Z,18.70
2019-02-15T04:33:36.697Z,18.50
2019-02-15T04:36:39.799Z,18.07
2019-02-15T04:39:42.884Z,18.33
2019-02-15T04:42:45.985Z,17.87
2019-02-15T04:45:49.176Z,18.50
2019-02-15T04:48:52.356Z,18.07
2019-02-15T04:51:55.459Z,18.00
2019-02-15T04:54:58.655Z,17.27
2019-02-15T04:58:01.853Z,17.97
2019-02-15T05:01:04.994Z,17.80
2019-02-15T05:04:08.143Z,17.37
2019-02-15T05:07:11.340Z,17.33
2019-02-15T05:10:14.519Z,16.57
2019-02-15T05:13:17.713Z,9.63
2019-02-15T05:16:20.805Z,8.53
2019-02-15T05:19:23.899Z,7.27
2019-02-15T05:22:26.998Z,7.10
2019-02-15T05:25:30.079Z,7.10
2019-02-15T05:28:33.191Z,12.33
2019-02-15T05:31:36.385Z,16.87
2019-02-15T05:34:39.567Z,17.07
2019-02-15T05:37:42.753Z,14.57
2019-02-15T05:40:45.909Z,14.93
2019-02-15T05:43:49.046Z,14.27
2019-02-15T05:46:52.183Z,15.30
2019-02-15T05:49:55.379Z,14.40
2019-02-15T05:52:58.547Z,15.23
2019-02-15T05:56:01.720Z,16.60
2019-02-15T05:59:04.916Z,15.47
2019-02-15T06:02:08.113Z,15.17
2019-02-15T06:05:11.327Z,15.27
2019-02-15T06:08:14.498Z,15.57
2019-02-15T06:11:17.684Z,15.07
2019-02-15T06:14:20.774Z,15.70
2019-02-15T06:17:23.879Z,15.90
2019-02-15T06:20:27.081Z,15.33
2019-02-15T06:23:30.307Z,15.47
2019-02-15T06:26:34.401Z,15.87
2019-02-15T06:29:37.570Z,16.40
2019-02-15T06:32:40.766Z,15.00
2019-02-15T06:35:43.967Z,17.23
2019-02-15T06:38:47.106Z,16.83
2019-02-15T06:41:50.263Z,15.57
2019-02-15T06:44:53.456Z,15.87
2019-02-15T06:47:56.580Z,15.63
2019-02-15T06:50:59.747Z,14.93
2019-02-15T06:54:02.972Z,16.73
2019-02-15T06:57:06.135Z,16.17
2019-02-15T07:00:14.991Z,15.53
2019-02-15T07:03:21.965Z,13.97
2019-02-15T07:06:25.115Z,16.60
2019-02-15T07:09:28.302Z,15.90
2019-02-15T07:12:31.410Z,14.40
2019-02-15T07:15:34.579Z,13.80
2019-02-15T07:18:37.681Z,14.10
2019-02-15T07:21:40.771Z,14.50
2019-02-15T07:24:43.895Z,15.03
2019-02-15T07:27:47.076Z,14.80
2019-02-15T07:30:50.259Z,14.47
2019-02-15T07:33:53.365Z,15.60
2019-02-15T07:36:56.645Z,15.77
2019-02-15T07:39:59.765Z,16.13
2019-02-15T07:43:02.858Z,14.77
2019-02-15T07:46:06.039Z,16.20
2019-02-15T07:49:09.119Z,16.97
2019-02-15T07:52:12.896Z,15.30
2019-02-15T07:55:16.023Z,16.27
2019-02-15T07:58:19.213Z,16.00
2019-02-15T08:01:22.287Z,16.70
2019-02-15T08:04:25.393Z,15.23
2019-02-15T08:07:28.472Z,14.57
2019-02-15T08:10:31.675Z,14.67
2019-02-15T08:13:34.772Z,14.77
2019-02-15T08:16:38.797Z,14.70
2019-02-15T08:19:41.080Z,16.00
2019-02-15T08:22:44.463Z,14.50
2019-02-15T08:25:47.656Z,15.13
2019-02-15T08:28:50.871Z,14.63
2019-02-15T08:31:54.049Z,14.87
2019-02-15T08:34:57.115Z,15.03
2019-02-15T08:38:00.199Z,14.87
2019-02-15T08:41:03.316Z,15.13
2019-02-15T08:44:06.478Z,17.43
2019-02-15T08:47:09.597Z,15.80
2019-02-15T08:50:12.751Z,15.53
2019-02-15T08:53:15.911Z,15.20
2019-02-15T08:56:19.102Z,15.47
2019-02-15T08:59:22.188Z,16.03
2019-02-15T09:02:25.855Z,14.77
2019-02-15T09:05:29.027Z,14.60
2019-02-15T09:08:32.171Z,14.33
2019-02-15T09:11:35.363Z,15.33
2019-02-15T09:14:38.463Z,15.13
2019-02-15T09:17:41.550Z,14.40
2019-02-15T09:20:44.741Z,14.83
2019-02-15T09:23:47.938Z,15.60
2019-02-15T09:26:51.030Z,15.23
2019-02-15T09:29:54.121Z,15.50
2019-02-15T09:32:57.196Z,14.83
2019-02-15T09:36:00.297Z,11.27
2019-02-15T09:39:04.300Z,10.30
2019-02-15T09:42:07.439Z,8.77
2019-02-15T09:45:11.236Z,9.33
2019-02-15T09:48:14.405Z,8.47
2019-02-15T09:51:17.499Z,8.83
2019-02-15T09:54:20.699Z,8.40
2019-02-15T09:57:23.895Z,7.90
2019-02-15T10:00:26.983Z,8.63
2019-02-15T10:03:30.083Z,8.60
2019-02-15T10:06:33.297Z,8.97
2019-02-15T10:09:36.477Z,8.07
2019-02-15T10:12:39.688Z,8.53
2019-02-15T10:15:42.875Z,8.03
2019-02-15T10:18:45.971Z,8.17
2019-02-15T10:21:49.169Z,8.27
2019-02-15T10:24:52.377Z,7.80
2019-02-15T10:27:56.761Z,7.40
2019-02-15T10:30:59.987Z,8.03
2019-02-15T10:34:03.155Z,7.73
2019-02-15T10:37:06.359Z,7.50
2019-02-15T10:40:09.535Z,7.83
2019-02-15T10:43:12.618Z,7.73
2019-02-15T10:46:15.721Z,8.13
2019-02-15T10:49:18.826Z,8.23
2019-02-15T10:52:22.063Z,7.90
2019-02-15T10:55:25.467Z,8.30
2019-02-15T10:58:28.618Z,7.97
2019-02-15T11:01:32.376Z,8.07
2019-02-15T11:04:35.948Z,8.10
2019-02-15T11:07:39.391Z,8.37
2019-02-15T11:10:42.532Z,7.40
2019-02-15T11:13:45.885Z,7.87
2019-02-15T11:16:49.151Z,7.90
2019-02-15T11:19:52.397Z,7.10
2019-02-15T11:22:55.777Z,7.60
2019-02-15T11:25:58.888Z,6.57
2019-02-15T11:29:01.995Z,8.37
2019-02-15T11:32:05.154Z,7.30
2019-02-15T11:35:09.688Z,7.77
2019-02-15T11:38:12.787Z,7.20
2019-02-15T11:41:15.891Z,7.37
2019-02-15T11:44:19.244Z,6.77
2019-02-15T11:47:22.512Z,7.20
2019-02-15T11:50:25.660Z,6.77
2019-02-15T11:53:28.764Z,6.90
2019-02-15T11:56:32.107Z,6.80
2019-02-15T11:59:35.251Z,6.63
2019-02-15T12:02:38.346Z,6.00
2019-02-15T12:05:41.439Z,6.53
2019-02-15T12:08:44.529Z,5.87
2019-02-15T12:11:47.747Z,6.53
2019-02-15T12:14:50.939Z,7.30
2019-02-15T12:17:54.124Z,7.53
2019-02-15T12:20:57.216Z,6.07
2019-02-15T12:24:00.404Z,5.67
2019-02-15T12:27:03.603Z,6.37
2019-02-15T12:30:07.638Z,6.20
2019-02-15T12:33:10.815Z,5.97
2019-02-15T12:36:14.014Z,5.83
2019-02-15T12:39:17.204Z,5.73
2019-02-15T12:42:20.428Z,4.60
2019-02-15T12:45:23.588Z,5.00
2019-02-15T12:48:26.681Z,5.60
2019-02-15T12:51:29.855Z,4.47
2019-02-15T12:54:32.946Z,3.60
2019-02-15T12:57:36.038Z,3.80
2019-02-15T13:00:39.151Z,4.40
2019-02-15T13:03:42.236Z,3.80
2019-02-15T13:06:46.908Z,4.23
2019-02-15T13:09:48.429Z,3.57
2019-02-15T13:12:51.539Z,3.50
2019-02-15T13:15:54.627Z,3.40
2019-02-15T13:18:57.847Z,3.30
2019-02-15T13:22:00.991Z,3.10
2019-02-15T13:25:04.290Z,3.47
2019-02-15T13:28:07.490Z,3.30
2019-02-15T13:31:10.574Z,3.30
2019-02-15T13:34:13.684Z,3.37
2019-02-15T13:37:16.896Z,3.70
2019-02-15T13:40:19.992Z,3.23
2019-02-15T13:43:23.075Z,3.60
2019-02-15T13:46:26.156Z,3.50
2019-02-15T13:49:29.340Z,4.17
2019-02-15T13:52:32.539Z,4.07
2019-02-15T13:55:35.732Z,4.13
2019-02-15T13:58:38.915Z,4.47
2019-02-15T14:01:42.007Z,4.27
2019-02-15T14:04:45.282Z,4.70
2019-02-15T14:07:48.401Z,4.80
2019-02-15T14:10:51.470Z,4.80
2019-02-15T14:13:54.553Z,4.83
2019-02-15T14:16:57.681Z,4.97
2019-02-15T14:20:00.773Z,4.57
2019-02-15T14:23:03.962Z,4.90
2019-02-15T14:26:07.067Z,4.77
2019-02-15T14:29:11.222Z,5.30
2019-02-15T14:32:14.303Z,4.53
2019-02-15T14:35:17.523Z,4.73
2019-02-15T14:38:20.654Z,4.73
2019-02-15T14:41:23.834Z,5.07
2019-02-15T14:44:26.942Z,4.97
2019-02-15T14:47:30.031Z,4.80
2019-02-15T14:50:33.152Z,4.40
2019-02-15T14:53:36.323Z,5.03
2019-02-15T14:56:39.525Z,4.90
2019-02-15T14:59:42.700Z,4.80
2019-02-15T15:02:45.804Z,5.30
2019-02-15T15:05:49.012Z,4.90
2019-02-15T15:08:52.095Z,6.03
2019-02-15T15:11:55.309Z,5.80
2019-02-15T15:14:58.381Z,5.30
2019-02-15T15:18:12.427Z,4.90
2019-02-15T15:21:04.551Z,5.27
2019-02-15T15:24:07.745Z,5.70
2019-02-15T15:27:10.855Z,5.07
2019-02-15T15:30:13.955Z,5.07
2019-02-15T15:33:17.086Z,5.00
2019-02-15T15:36:20.263Z,5.77
2019-02-15T15:39:23.512Z,5.27
2019-02-15T15:42:26.816Z,5.47
2019-02-15T15:45:30.006Z,5.07
2019-02-15T15:48:33.484Z,4.80
2019-02-15T15:51:36.679Z,5.30
2019-02-15T15:54:39.926Z,7.60
2019-02-15T15:57:43.002Z,5.60
2019-02-15T16:00:46.219Z,4.60
2019-02-15T16:03:49.390Z,5.00
2019-02-15T16:06:52.479Z,5.10
2019-02-15T16:09:55.774Z,5.00
2019-02-15T16:12:58.963Z,5.40
2019-02-15T16:16:02.165Z,5.60
2019-02-15T16:19:05.287Z,6.03
2019-02-15T16:22:08.360Z,6.27
2019-02-15T16:25:11.565Z,6.20
2019-02-15T16:28:14.735Z,6.90
2019-02-15T16:31:17.830Z,8.00
2019-02-15T16:34:20.923Z,6.00
2019-02-15T16:37:24.083Z,6.33
2019-02-15T16:40:27.231Z,5.63
2019-02-15T16:43:30.374Z,5.97
2019-02-15T16:46:33.522Z,5.67
2019-02-15T16:49:36.608Z,6.17
2019-02-15T16:52:39.804Z,6.93
2019-02-15T16:55:42.992Z,7.03
2019-02-15T16:58:46.187Z,7.70
2019-02-15T17:01:49.407Z,9.30
2019-02-15T17:04:52.610Z,8.07
2019-02-15T17:07:55.806Z,9.03
2019-02-15T17:10:58.984Z,10.73
2019-02-15T17:14:02.335Z,10.20
2019-02-15T17:17:05.621Z,9.67
2019-02-15T17:20:08.878Z,9.80
2019-02-15T17:23:12.066Z,9.83
2019-02-15T17:26:15.279Z,8.70
2019-02-15T17:29:18.445Z,9.70
2019-02-15T17:32:21.568Z,10.53
2019-02-15T17:35:24.756Z,8.53
2019-02-15T17:38:27.904Z,7.93
2019-02-15T17:41:31.031Z,9.20
2019-02-15T17:44:34.206Z,11.40
2019-02-15T17:47:37.422Z,13.20
2019-02-15T17:50:40.644Z,11.03
2019-02-15T17:53:43.794Z,9.20
2019-02-15T17:56:47.048Z,8.73
2019-02-15T17:59:50.298Z,9.00
2019-02-15T18:02:53.691Z,9.37
2019-02-15T18:05:56.876Z,9.43
2019-02-15T18:09:00.012Z,10.37
2019-02-15T18:12:03.139Z,11.70
2019-02-15T18:15:06.343Z,14.07
2019-02-15T18:18:09.480Z,16.20
2019-02-15T18:21:12.677Z,15.53
2019-02-15T18:24:15.880Z,13.77
2019-02-15T18:27:19.023Z,11.87
2019-02-15T18:30:22.239Z,11.20
2019-02-15T18:33:25.463Z,11.53
2019-02-15T18:36:28.657Z,11.33
2019-02-15T18:39:31.963Z,11.20
2019-02-15T18:42:35.115Z,12.80
2019-02-15T18:45:38.319Z,13.63
2019-02-15T18:48:41.494Z,12.37
2019-02-15T18:51:44.690Z,11.33
2019-02-15T18:54:47.886Z,11.07
2019-02-15T18:57:50.974Z,11.90
2019-02-15T19:00:54.168Z,10.93
2019-02-15T19:03:57.376Z,10.93
2019-02-15T19:07:00.591Z,10.33
2019-02-15T19:10:03.895Z,10.80
2019-02-15T19:13:07.091Z,11.33
2019-02-15T19:16:10.259Z,11.43
2019-02-15T19:19:13.469Z,11.30
2019-02-15T19:22:16.643Z,11.70
2019-02-15T19:25:19.861Z,11.10
2019-02-15T19:28:23.032Z,11.17
2019-02-15T19:31:26.131Z,11.27
2019-02-15T19:34:29.328Z,11.30
2019-02-15T19:37:32.432Z,11.27
2019-02-15T19:40:35.599Z,11.80
2019-02-15T19:43:38.853Z,11.63
2019-02-15T19:46:41.984Z,10.73
2019-02-15T19:49:45.076Z,12.03
2019-02-15T19:52:48.484Z,11.00
2019-02-15T19:55:51.707Z,11.00
2019-02-15T19:58:54.864Z,11.50
2019-02-15T20:01:57.989Z,10.93
2019-02-15T20:05:01.181Z,11.13
2019-02-15T20:08:04.339Z,11.13
2019-02-15T20:11:07.552Z,11.73
2019-02-15T20:14:10.847Z,11.33
2019-02-15T20:17:14.043Z,10.83
2019-02-15T20:20:17.202Z,11.43
2019-02-15T20:23:20.358Z,11.07
2019-02-15T20:26:23.518Z,11.13
2019-02-15T20:29:26.711Z,13.30
2019-02-15T20:32:29.922Z,12.57
2019-02-15T20:35:33.102Z,12.20
2019-02-15T20:38:36.186Z,11.03
2019-02-15T20:41:39.288Z,11.57
2019-02-15T20:44:42.444Z,12.47
2019-02-15T20:47:45.570Z,14.10
2019-02-15T20:50:48.781Z,13.63
2019-02-15T20:53:52.024Z,13.33
2019-02-15T20:56:55.167Z,14.43
2019-02-15T20:59:58.339Z,15.87
2019-02-15T21:03:01.447Z,10.73
2019-02-15T21:06:04.683Z,9.70
2019-02-15T21:09:08.196Z,9.67
2019-02-15T21:12:11.344Z,9.30
2019-02-15T21:15:14.570Z,8.00
2019-02-15T21:18:17.781Z,9.07
2019-02-15T21:21:20.909Z,8.33
2019-02-15T21:24:24.063Z,8.77
2019-02-15T21:27:27.271Z,8.50
2019-02-15T21:30:30.443Z,8.60
2019-02-15T21:33:33.589Z,8.97
2019-02-15T21:36:36.851Z,9.23
2019-02-15T21:39:40.061Z,8.83
2019-02-15T21:42:43.185Z,8.60
2019-02-15T21:45:46.362Z,8.67
2019-02-15T21:48:49.577Z,9.13
2019-02-15T21:51:53.121Z,10.07
2019-02-15T21:54:56.300Z,8.53
2019-02-15T21:58:01.768Z,9.03
2019-02-15T22:01:02.576Z,9.30
2019-02-15T22:04:05.732Z,9.40
2019-02-15T22:07:08.828Z,10.40
2019-02-15T22:10:11.939Z,10.80
2019-02-15T22:13:15.115Z,10.40
2019-02-15T22:16:18.315Z,10.77
2019-02-15T22:19:21.561Z,9.13
2019-02-15T22:22:24.759Z,9.43
2019-02-15T22:25:27.882Z,10.37
2019-02-15T22:28:31.079Z,10.80
2019-02-15T22:31:34.165Z,10.83
2019-02-15T22:34:37.276Z,9.20
2019-02-15T22:37:40.470Z,9.30
2019-02-15T22:40:44.798Z,9.17
2019-02-15T22:43:48.150Z,8.60
2019-02-15T22:46:52.017Z,8.47
2019-02-15T22:49:55.197Z,8.90
2019-02-15T22:52:58.288Z,9.00
2019-02-15T22:56:01.479Z,9.13
2019-02-15T22:59:04.567Z,9.50
2019-02-15T23:02:07.669Z,10.10
2019-02-15T23:05:10.833Z,10.37
2019-02-15T23:08:14.071Z,9.77
2019-02-15T23:11:17.275Z,8.70
2019-02-15T23:14:20.439Z,7.37
2019-02-15T23:17:23.654Z,8.60
2019-02-15T23:20:26.835Z,8.40
2019-02-15T23:23:30.039Z,8.47
2019-02-15T23:26:33.235Z,8.23
2019-02-15T23:29:36.447Z,9.50
2019-02-15T23:32:39.621Z,9.70
2019-02-15T23:35:42.819Z,10.27
2019-02-15T23:38:46.038Z,10.17
2019-02-15T23:41:49.208Z,9.40
2019-02-15T23:44:52.377Z,10.73
2019-02-15T23:47:55.483Z,9.87
2019-02-15T23:50:58.680Z,9.93
2019-02-15T23:54:01.863Z,9.97
2019-02-15T23:57:05.059Z,10.30
